Gundsomagle, Denmark
Current Conditions -  °F | °C
As of 1:20 AM on Saturday 20 Dec 2014 (Local Time) from EKRK Reporting Station
Broken Clouds Broken Clouds  
Wind Chill: 30°   Ceiling: 17000
Heat Index: 39°   Visibility: 6mi
Dew Point: 34°   Wind: 17mph
Humidity: 81%   Direction: 240°WSW
Pressure: 29.56"   Gusts: NA
Location:  55.74°N, 12.15°E
Report Text: EKRK 200020Z AUTO 24015KT 9999NDV FEW140/// BKN170///04/01 Q1001
Loading
Personal Weather Stations






























Interactive Weather Map New forecast layout! Learn more

10-Day Weather Forecast

Advertisements
Track Severe Weather on mobile